Date,TemperatureHighF,TemperatureAvgF,TemperatureLowF,DewpointHighF,DewpointAvgF,DewpointLowF,HumidityHigh,HumidityAvg,HumidityLow,PressureMaxIn,PressureMinIn,WindSpeedMaxMPH,WindSpeedAvgMPH,GustSpeedMaxMPH,PrecipitationSumIn
2013-3-1,51.1,41.9,32.0,32.2,29.9,26.9,83,64,45,29.89,29.81,2,0,5,0.00
2013-3-2,47.8,39.9,33.0,33.7,29.7,23.1,85,68,49,29.90,29.79,1,0,3,0.00
2013-3-3,46.1,36.7,28.1,25.1,22.2,19.9,74,56,41,29.97,29.83,2,0,5,0.00
2013-3-4,50.2,37.7,26.4,25.1,19.8,16.6,71,51,29,30.11,29.96,2,0,6,0.00
2013-3-5,51.1,44.5,35.8,49.5,36.6,22.0,97,75,54,30.06,29.55,0,0,6,0.12
2013-3-6,52.4,45.1,38.7,50.4,33.7,26.7,96,66,46,30.00,29.50,3,1,7,0.06
2013-3-7,53.9,43.2,34.4,33.9,30.7,27.6,80,62,45,30.20,30.00,2,0,8,0.00
2013-3-8,55.6,44.2,32.2,29.7,27.5,25.5,77,54,34,30.27,30.12,3,1,6,0.00
2013-3-9,61.8,46.8,33.5,35.9,31.0,27.2,78,56,34,30.31,30.20,1,0,3,0.00
2013-3-10,66.6,50.4,32.3,35.8,30.2,25.4,93,52,23,30.30,30.18,1,0,3,0.00
2013-3-11,69.2,55.4,42.1,55.3,44.7,25.3,92,68,40,30.23,29.92,1,0,5,0.00
2013-3-12,72.9,62.5,53.6,64.1,56.1,36.5,99,82,46,29.92,29.71,1,0,3,0.39
2013-3-13,59.0,48.8,37.4,37.5,30.4,22.7,83,52,31,30.10,29.91,2,0,5,0.00
2013-3-14,52.7,40.8,29.9,27.7,22.4,18.5,64,49,32,30.24,30.09,2,0,5,0.00
2013-3-15,63.0,48.7,31.5,37.3,29.8,23.4,75,50,32,30.18,29.90,1,0,5,0.00
2013-3-16,79.4,64.9,52.9,51.7,44.8,36.9,64,50,35,29.90,29.66,1,0,4,0.00
2013-3-17,67.2,56.5,47.3,54.4,45.8,39.6,83,68,41,30.12,29.82,3,1,6,0.00
2013-3-18,50.7,44.6,39.9,45.7,41.3,38.3,95,89,75,30.15,29.91,2,0,5,0.02
2013-3-19,68.9,53.3,42.6,48.7,38.9,27.0,98,66,24,29.98,29.79,2,0,5,0.01
2013-3-20,56.6,48.1,39.0,28.8,22.5,16.5,58,37,24,30.11,29.77,1,0,3,0.00
2013-3-21,49.1,40.4,33.9,28.8,21.4,13.0,73,49,27,29.96,29.70,3,1,10,0.00
2013-3-22,53.3,43.4,25.8,25.2,19.7,12.9,63,40,27,30.08,29.95,1,0,4,0.00
2013-3-23,52.9,43.9,38.1,35.3,30.7,22.9,76,60,47,30.04,29.89,0,0,1,0.00
2013-3-24,43.7,40.3,37.6,40.6,37.2,31.7,96,89,66,29.91,29.51,2,0,5,0.59
2013-3-25,50.4,42.0,37.3,42.4,33.2,24.7,100,74,42,29.82,29.53,2,0,11,0.02
2013-3-26,50.0,42.7,35.8,32.3,28.6,25.0,70,58,49,30.10,29.82,2,0,5,0.00
2013-3-27,53.5,43.1,33.4,29.2,26.6,24.2,75,54,36,30.21,30.10,2,1,7,0.00
2013-3-28,56.0,44.3,31.5,30.3,26.6,23.4,73,51,33,30.27,30.14,2,0,4,0.00
2013-3-29,61.9,47.1,31.4,32.6,28.8,25.9,82,52,28,30.32,30.16,1,0,4,0.00
2013-3-30,66.5,54.7,45.1,46.4,40.8,31.2,80,60,43,30.23,30.07,1,0,2,0.00
2013-3-31,70.5,58.4,48.7,58.7,51.8,42.6,97,80,61,30.09,29.78,1,0,9,0.21